This is the latest recevied weather packets stored in our database for station/object KC8JWT. If no packets are shown the sender has not sent any weather packets the latest 10 day(s).
| Time | Temp. | Humidity | Pressure | Rain* | Wind** | Luminosity | Snow |
|---|---|---|---|---|---|---|---|
| 1778161502 | 12.78° C | 56% | 1014.6 hPa | 0 mm | - | 486 W/m² | - |
| 1778161198 | 13.33° C | 56% | 1014.5 hPa | 0 mm | - | 469 W/m² | - |
| 1778160894 | 13.33° C | 55% | 1014.5 hPa | 0 mm | - | 450 W/m² | - |
| 1778160593 | 13.33° C | 54% | 1014.6 hPa | 0 mm | - | 431 W/m² | - |
| 1778160289 | 13.33° C | 53% | 1014.6 hPa | 0 mm | - | 418 W/m² | - |
| 1778159985 | 13.33° C | 58% | 1014.6 hPa | 0 mm | - | 294 W/m² | - |
| 1778159682 | 11.67° C | 68% | 1014.6 hPa | 0 mm | - | 82 W/m² | - |
| 1778159379 | 11.67° C | 64% | 1014.8 hPa | 0 mm | - | 364 W/m² | - |
| 1778159076 | 11.67° C | 67% | 1014.8 hPa | 0 mm | - | 353 W/m² | - |
| 1778158775 | 11.67° C | 68% | 1015 hPa | 0 mm | - | 328 W/m² | - |
| 1778158473 | 11.67° C | 68% | 1014.7 hPa | 0 mm | - | 66 W/m² | - |
| 1778158170 | 11.67° C | 66% | 1014.7 hPa | 0 mm | - | 224 W/m² | - |
| 1778157866 | 10.56° C | 71% | 1014.8 hPa | 0 mm | - | 273 W/m² | - |
| 1778157565 | 10.56° C | 69% | 1014.7 hPa | 0 mm | - | 248 W/m² | - |
| 1778157262 | 10.56° C | 72% | 1015.1 hPa | 0 mm | - | 244 W/m² | - |
| 1778156958 | 10.56° C | 73% | 1014.6 hPa | 0 mm | - | 60 W/m² | - |
| 1778156653 | 10° C | 73% | 1014.8 hPa | 0 mm | - | 206 W/m² | - |
| 1778156350 | 10° C | 74% | 1014.7 hPa | 0 mm | - | 192 W/m² | - |
| 1778156045 | 10° C | 75% | 1014.9 hPa | 0 mm | - | 181 W/m² | - |
| 1778155742 | 10° C | 74% | 1014.5 hPa | 0 mm | - | 167 W/m² | - |
| 1778155438 | 10° C | 75% | 1014.5 hPa | 0 mm | - | 150 W/m² | - |
| 1778155134 | 10.56° C | 74% | 1014.5 hPa | 0 mm | - | 131 W/m² | - |
| 1778154830 | 10.56° C | 75% | 1014.5 hPa | 0 mm | - | 105 W/m² | - |
| 1778154526 | 10° C | 76% | 1014.6 hPa | 0 mm | - | 87 W/m² | - |
| 1778154224 | 10° C | 77% | 1014.3 hPa | 0 mm | - | 70 W/m² | - |
* Rain latest hour (hover to see other rain measurements)
** Current wind speed in m/s (hover to see current wind gust speed)